Rechercher aéroport 
image banner adimage banner ad
image banner ad

EVRA - Riga

Situé à Riga, Latvia

ICAO - EVRA, IATA - RIX

Données fournies par Airmate  

Information générale

Coordonnées: N56°55'25" E23°58'16"
Élévation : 37 feet MSL.
Variation magnétique : 7° East
Voir autres Aéroports à Riga (city)

Données opérationnelles

Accessible au public
Heure actuelle UTC:
Heure actuelle locale:
Météo
METAR: EVRA 280250Z 18007KT 9999 SCT003 BKN033 BKN041 07/07 Q1011 R18/290195 NOSIG
TAF: TAF EVRA 280200Z 2803/2903 17007KT 9999 BKN020 TEMPO 2803/2806 3000 BR BKN005 TEMPO 2821/2903 3000 SHRA BKN012CB
Voir NOTAMs / SUP AIP / TFR affectant cet aéroport [VIEW]
Fréquences de communication: [VIEW]

Pistes:

Identifiant RWYQFULongueur (ft)Largeur (ft)SurfaceLDA (ft)
18185°10499148CONC+ASPH10499
3610499148CONC+ASPH10499

Coordonnées de l'aéroport

Adresse: Riga Latvia

Autres services d'aviation

Écoles de pilotage

Air Baltic

Air Baltic
training@airbaltictraining.com+37167668512
+37126393535

Airtraining Group

Airtraining Group
ht@airtraining.eu+37125474744

Bcat

Bcat

Eriva

Eriva
info@eriva.lv+37126541441

Swan Fly

Swan Fly

Ateliers de réparation

Smart Lynx

Smart Lynx

Vue satellite de EVRA